Time;durP1;ratioP1;P1;durP2;ratioP2;P2;SDS_P1;SDS_P2;PMS_P1;PMS_P2;Temp;Humidity;BMP_temperature;BMP_pressure;BME280_temperature;BME280_humidity;BME280_pressure;Samples;Min_cycle;Max_cycle;Signal;HPM_P1;HPM_P2
2022/08/19 00:00:06;;;;;;;19.48;15.95;;;;;;;;;;5093014;28;20400;-64
2022/08/19 00:02:32;;;;;;;;;;;;;;;;;;5093121;28;20020;-65
2022/08/19 00:04:58;;;;;;;22.13;17.55;;;;;;;;;;5074801;28;19968;-61
2022/08/19 00:07:24;;;;;;;23.10;18.60;;;;;;;;;;5073496;28;20484;-64
2022/08/19 00:09:50;;;;;;;23.13;18.88;;;;;;;;;;5092568;28;20031;-65
2022/08/19 00:12:16;;;;;;;22.08;18.08;;;;;;;;;;5094838;28;20032;-65
2022/08/19 00:14:42;;;;;;;20.70;18.08;;;;;;;;;;5095653;28;20043;-65
2022/08/19 00:17:09;;;;;;;20.30;17.70;;;;;;;;;;5095071;28;20012;-64
2022/08/19 00:19:35;;;;;;;20.95;17.02;;;;;;;;;;5095248;28;20553;-65
2022/08/19 00:22:02;;;;;;;20.75;18.30;;;;;;;;;;5095392;28;20035;-65
2022/08/19 00:24:28;;;;;;;26.45;18.35;;;;;;;;;;5077255;28;20024;-65
2022/08/19 00:26:56;;;;;;;20.73;18.25;;;;;;;;;;5095330;28;20024;-65
2022/08/19 00:29:22;;;;;;;23.25;18.40;;;;;;;;;;5076500;28;20024;-66
2022/08/19 00:31:49;;;;;;;22.38;18.52;;;;;;;;;;5095181;28;20028;-65
2022/08/19 00:34:16;;;;;;;21.65;18.63;;;;;;;;;;5094860;28;20115;-66
2022/08/19 00:36:42;;;;;;;23.50;18.85;;;;;;;;;;5076886;28;20031;-67
2022/08/19 00:39:09;;;;;;;22.73;18.27;;;;;;;;;;5094709;28;20062;-66
2022/08/19 00:41:35;;;;;;;21.08;18.50;;;;;;;;;;5095703;28;20028;-65
2022/08/19 00:44:04;;;;;;;24.75;19.38;;;;;;;;;;5095168;28;20113;-65
2022/08/19 00:46:32;;;;;;;24.95;19.23;;;;;;;;;;5095398;28;20165;-65
2022/08/19 00:48:58;;;;;;;22.60;19.30;;;;;;;;;;5094363;28;20032;-65
2022/08/19 00:51:26;;;;;;;23.65;19.30;;;;;;;;;;5076805;28;20277;-65
2022/08/19 00:53:53;;;;;;;23.75;19.33;;;;;;;;;;5094543;28;20376;-65
2022/08/19 00:56:19;;;;;;;23.23;19.10;;;;;;;;;;5094868;28;20020;-65
2022/08/19 00:58:44;;;;;;;23.00;19.70;;;;;;;;;;5093838;28;20020;-65
2022/08/19 01:01:11;;;;;;;22.83;19.85;;;;;;;;;;5094743;28;20016;-65
2022/08/19 01:03:36;;;;;;;24.10;20.45;;;;;;;;;;5094647;28;20028;-65
2022/08/19 01:06:02;;;;;;;23.42;19.65;;;;;;;;;;5094353;28;20032;-65
2022/08/19 01:08:29;;;;;;;22.60;19.70;;;;;;;;;;5075704;28;20576;-65
2022/08/19 01:10:56;;;;;;;23.92;20.83;;;;;;;;;;5094180;28;20404;-66
2022/08/19 01:13:27;;;;;;;23.53;21.03;;;;;;;;;;5076126;28;20020;-65
2022/08/19 01:15:58;;;;;;;24.70;20.75;;;;;;;;;;5076142;28;20094;-66
2022/08/19 01:18:25;;;;;;;23.67;20.35;;;;;;;;;;5093544;28;20024;-65
2022/08/19 01:20:52;;;;;;;25.65;21.65;;;;;;;;;;5094368;28;20028;-65
2022/08/19 01:23:18;;;;;;;24.88;20.75;;;;;;;;;;5093906;28;20453;-66
2022/08/19 01:25:51;;;;;;;23.80;21.20;;;;;;;;;;5094155;28;20028;-64
2022/08/19 01:28:19;;;;;;;25.88;21.58;;;;;;;;;;5075097;28;20034;-65
2022/08/19 01:30:46;;;;;;;26.45;22.35;;;;;;;;;;5093939;28;20448;-65
2022/08/19 01:33:12;;;;;;;24.65;21.80;;;;;;;;;;5075682;28;20056;-66
2022/08/19 01:35:38;;;;;;;29.33;22.38;;;;;;;;;;5093978;28;20016;-66
2022/08/19 01:38:07;;;;;;;23.50;21.00;;;;;;;;;;5075157;28;20035;-66
2022/08/19 01:40:34;;;;;;;26.08;22.25;;;;;;;;;;5075744;28;20051;-66
2022/08/19 01:43:00;;;;;;;24.13;20.42;;;;;;;;;;5093629;28;20037;-66
2022/08/19 01:45:28;;;;;;;24.45;21.33;;;;;;;;;;5093772;28;20120;-65
2022/08/19 01:47:54;;;;;;;24.52;21.88;;;;;;;;;;5092969;28;20400;-66
2022/08/19 01:50:20;;;;;;;27.45;22.27;;;;;;;;;;5093513;28;20027;-65
2022/08/19 01:52:46;;;;;;;25.48;21.42;;;;;;;;;;5091418;28;20476;-65
2022/08/19 01:55:14;;;;;;;27.20;22.05;;;;;;;;;;5093736;28;20024;-65
2022/08/19 01:57:43;;;;;;;24.92;21.85;;;;;;;;;;5092585;28;20371;-65
2022/08/19 02:00:11;;;;;;;26.42;22.23;;;;;;;;;;5093578;28;20024;-65
2022/08/19 02:02:37;;;;;;;26.20;22.70;;;;;;;;;;5093652;28;20377;-66
2022/08/19 02:05:03;;;;;;;23.70;21.23;;;;;;;;;;5093588;28;20032;-65
2022/08/19 02:07:29;;;;;;;26.65;23.20;;;;;;;;;;5092588;28;20016;-65
2022/08/19 02:09:55;;;;;;;26.63;23.02;;;;;;;;;;5093463;28;20480;-65
2022/08/19 02:12:21;;;;;;;25.15;22.48;;;;;;;;;;5074817;28;20028;-65
2022/08/19 02:14:47;;;;;;;26.35;22.17;;;;;;;;;;5093156;28;20027;-65
2022/08/19 02:17:13;;;;;;;29.83;23.55;;;;;;;;;;5092661;28;20025;-65
2022/08/19 02:19:40;;;;;;;27.77;22.85;;;;;;;;;;5092858;28;20472;-65
2022/08/19 02:22:06;;;;;;;26.58;23.40;;;;;;;;;;5093103;28;20031;-63
2022/08/19 02:24:32;;;;;;;27.02;22.98;;;;;;;;;;5093201;28;20039;-65
2022/08/19 02:26:58;;;;;;;25.30;22.58;;;;;;;;;;5074824;28;20114;-64
2022/08/19 02:29:24;;;;;;;27.23;22.70;;;;;;;;;;5074049;28;20522;-64
2022/08/19 02:31:51;;;;;;;30.27;24.02;;;;;;;;;;5093066;28;20118;-64
2022/08/19 02:34:17;;;;;;;26.60;22.60;;;;;;;;;;5092039;28;20050;-64
2022/08/19 02:36:43;;;;;;;25.88;22.60;;;;;;;;;;5092649;28;20452;-65
2022/08/19 02:39:09;;;;;;;27.38;22.58;;;;;;;;;;5092026;28;20024;-63
2022/08/19 02:41:35;;;;;;;25.50;22.77;;;;;;;;;;5092609;28;20020;-65
2022/08/19 02:44:03;;;;;;;25.58;22.55;;;;;;;;;;5092475;28;20055;-66
2022/08/19 02:46:31;;;;;;;26.38;23.33;;;;;;;;;;5092605;28;20472;-65
2022/08/19 02:48:58;;;;;;;24.75;22.13;;;;;;;;;;5073779;28;20039;-65
2022/08/19 02:51:26;;;;;;;25.63;22.10;;;;;;;;;;5092464;28;20499;-65
2022/08/19 02:53:52;;;;;;;23.63;21.13;;;;;;;;;;5092232;28;20024;-65
2022/08/19 02:56:19;;;;;;;24.35;21.00;;;;;;;;;;5092509;28;20027;-64
2022/08/19 02:58:45;;;;;;;27.48;21.75;;;;;;;;;;5091671;28;20030;-65
2022/08/19 03:01:12;;;;;;;24.85;22.13;;;;;;;;;;5092244;28;20031;-64
2022/08/19 03:03:38;;;;;;;23.85;20.73;;;;;;;;;;5092213;28;20403;-65
2022/08/19 03:06:12;;;;;;;25.27;22.50;;;;;;;;;;5092253;28;20024;-65
2022/08/19 03:08:39;;;;;;;25.80;21.80;;;;;;;;;;5091915;28;20020;-65
2022/08/19 03:11:05;;;;;;;25.92;22.13;;;;;;;;;;5092101;28;20040;-65
2022/08/19 03:13:31;;;;;;;25.05;22.40;;;;;;;;;;5074073;28;20028;-65
2022/08/19 03:15:57;;;;;;;26.15;22.50;;;;;;;;;;5092661;28;20079;-65
2022/08/19 03:18:23;;;;;;;27.77;22.88;;;;;;;;;;5092274;28;20031;-65
2022/08/19 03:20:52;;;;;;;25.50;22.73;;;;;;;;;;5092899;28;20016;-64
2022/08/19 03:23:18;;;;;;;;;;;;;;;;;;5093009;28;20021;-66
2022/08/19 03:25:45;;;;;;;25.90;23.10;;;;;;;;;;5093005;28;19973;-63
2022/08/19 03:28:12;;;;;;;27.20;23.35;;;;;;;;;;5073908;28;20028;-65
2022/08/19 03:30:42;;;;;;;30.92;24.45;;;;;;;;;;5073959;28;20028;-65
2022/08/19 03:33:08;;;;;;;28.20;25.23;;;;;;;;;;5091678;28;20028;-64
2022/08/19 03:35:36;;;;;;;27.23;24.35;;;;;;;;;;5073692;28;20020;-65
2022/08/19 03:38:03;;;;;;;28.30;25.33;;;;;;;;;;5091212;28;20032;-64
2022/08/19 03:40:30;;;;;;;28.38;25.40;;;;;;;;;;5091760;28;20059;-66
2022/08/19 03:42:56;;;;;;;30.23;27.00;;;;;;;;;;5091925;28;20032;-64
2022/08/19 03:45:22;;;;;;;34.17;25.52;;;;;;;;;;5092699;28;20028;-64
2022/08/19 03:47:48;;;;;;;29.58;26.48;;;;;;;;;;5095273;28;20024;-64
2022/08/19 03:50:14;;;;;;;29.35;25.73;;;;;;;;;;5095784;28;20486;-64
2022/08/19 03:52:41;;;;;;;29.95;26.75;;;;;;;;;;5095702;28;20043;-64
2022/08/19 03:55:07;;;;;;;30.17;26.90;;;;;;;;;;5096025;28;20024;-63
2022/08/19 03:57:34;;;;;;;31.20;26.98;;;;;;;;;;5095236;28;20020;-64
2022/08/19 04:00:00;;;;;;;28.75;25.85;;;;;;;;;;5096063;28;20055;-63
2022/08/19 04:02:26;;;;;;;30.38;27.00;;;;;;;;;;5095995;28;20031;-64
2022/08/19 04:04:54;;;;;;;32.35;26.60;;;;;;;;;;5095766;28;20021;-64
2022/08/19 04:07:21;;;;;;;31.75;28.38;;;;;;;;;;5076633;28;20027;-64
2022/08/19 04:09:47;;;;;;;29.58;26.58;;;;;;;;;;5095314;28;20050;-60
2022/08/19 04:12:13;;;;;;;29.88;26.67;;;;;;;;;;5095403;28;20028;-63
2022/08/19 04:14:39;;;;;;;32.67;29.23;;;;;;;;;;5076826;28;20051;-64
2022/08/19 04:17:05;;;;;;;31.75;28.30;;;;;;;;;;5095078;28;20080;-63
2022/08/19 04:19:32;;;;;;;32.78;29.25;;;;;;;;;;5094484;28;20072;-63
2022/08/19 04:21:58;;;;;;;32.25;28.27;;;;;;;;;;5076660;28;20024;-62
2022/08/19 04:24:25;;;;;;;30.50;27.30;;;;;;;;;;5095185;28;20020;-63
2022/08/19 04:26:51;;;;;;;31.95;28.70;;;;;;;;;;5094931;28;20024;-64
2022/08/19 04:29:18;;;;;;;31.90;28.48;;;;;;;;;;5094233;28;20020;-63
2022/08/19 04:31:45;;;;;;;32.13;28.70;;;;;;;;;;5094928;28;20028;-64
2022/08/19 04:34:13;;;;;;;33.60;30.02;;;;;;;;;;5094913;28;20107;-64
2022/08/19 04:36:40;;;;;;;32.77;29.27;;;;;;;;;;5094976;28;20031;-63
2022/08/19 04:39:11;;;;;;;33.67;29.70;;;;;;;;;;5094016;28;20100;-64
2022/08/19 04:44:22;;;;;;;30.42;27.13;;;;;;;;;;5095216;28;20658;-63
2022/08/19 04:46:49;;;;;;;31.73;28.33;;;;;;;;;;5087466;28;20024;-60
2022/08/19 04:49:17;;;;;;;31.35;27.95;;;;;;;;;;5071939;28;20031;-61
2022/08/19 04:51:44;;;;;;;31.25;27.92;;;;;;;;;;5076762;28;20405;-62
2022/08/19 04:54:10;;;;;;;32.95;29.30;;;;;;;;;;5076345;28;20055;-62
2022/08/19 04:56:36;;;;;;;32.78;28.90;;;;;;;;;;5093908;28;20023;-63
2022/08/19 04:59:05;;;;;;;32.97;29.30;;;;;;;;;;5093509;28;20040;-63
2022/08/19 05:01:32;;;;;;;31.58;28.02;;;;;;;;;;5094602;28;20025;-65
2022/08/19 05:04:00;;;;;;;35.17;29.77;;;;;;;;;;5076230;28;20024;-63
2022/08/19 05:06:26;;;;;;;31.98;27.65;;;;;;;;;;5076082;28;20028;-64
2022/08/19 05:08:52;;;;;;;32.45;29.13;;;;;;;;;;5093551;28;20400;-62
2022/08/19 05:11:19;;;;;;;33.15;28.85;;;;;;;;;;5094568;28;20099;-63
2022/08/19 05:13:46;;;;;;;31.98;28.50;;;;;;;;;;5094087;28;20047;-63
2022/08/19 05:16:13;;;;;;;31.10;27.02;;;;;;;;;;5094033;28;20012;-65
2022/08/19 05:24:11;;;;;;;31.00;27.67;;;;;;;;;;5073551;28;20455;-64
2022/08/19 05:26:38;;;;;;;34.17;29.95;;;;;;;;;;5073642;28;20051;-62
2022/08/19 05:29:04;;;;;;;31.80;28.45;;;;;;;;;;5072238;28;20024;-65
2022/08/19 05:31:31;;;;;;;33.17;29.60;;;;;;;;;;5073271;28;20028;-64
2022/08/19 05:33:58;;;;;;;34.75;30.20;;;;;;;;;;5073757;28;20024;-65
2022/08/19 05:36:25;;;;;;;34.40;28.27;;;;;;;;;;5073879;28;20025;-64
2022/08/19 05:38:52;;;;;;;32.47;28.15;;;;;;;;;;5073037;28;20031;-64
2022/08/19 05:41:18;;;;;;;32.75;28.85;;;;;;;;;;5074053;28;20028;-62
2022/08/19 05:43:44;;;;;;;33.97;28.45;;;;;;;;;;5073538;28;20100;-63
2022/08/19 05:46:16;;;;;;;31.35;26.45;;;;;;;;;;5073417;28;20059;-63
2022/08/19 05:48:42;;;;;;;33.92;30.33;;;;;;;;;;5072785;28;20028;-64
2022/08/19 05:51:08;;;;;;;33.28;27.55;;;;;;;;;;5073742;28;20044;-65
2022/08/19 05:53:35;;;;;;;32.22;26.95;;;;;;;;;;5092868;23;20404;-67
2022/08/19 05:56:07;;;;;;;31.58;27.67;;;;;;;;;;5074716;28;20020;-67
2022/08/19 05:58:34;;;;;;;30.63;26.52;;;;;;;;;;5092304;28;20476;-64
2022/08/19 06:01:05;;;;;;;30.90;27.60;;;;;;;;;;5074687;28;20402;-63
2022/08/19 06:03:32;;;;;;;29.65;26.55;;;;;;;;;;5075191;28;20028;-64
2022/08/19 06:05:59;;;;;;;31.38;26.45;;;;;;;;;;5093148;28;20020;-68
2022/08/19 06:08:25;;;;;;;30.55;25.88;;;;;;;;;;5092052;28;20016;-65
2022/08/19 06:10:51;;;;;;;30.23;26.10;;;;;;;;;;5092347;28;20563;-65
2022/08/19 06:13:19;;;;;;;30.25;25.67;;;;;;;;;;5091817;28;20068;-64
2022/08/19 06:15:46;;;;;;;35.03;25.15;;;;;;;;;;5092389;28;20095;-65
2022/08/19 06:18:12;;;;;;;30.33;25.95;;;;;;;;;;5091703;28;20023;-64
2022/08/19 06:20:38;;;;;;;31.63;25.58;;;;;;;;;;5092621;28;20020;-64
2022/08/19 06:23:04;;;;;;;30.88;26.98;;;;;;;;;;5074244;28;20177;-64
2022/08/19 06:25:30;;;;;;;28.98;25.67;;;;;;;;;;5092524;28;20492;-60
2022/08/19 06:27:56;;;;;;;30.92;25.40;;;;;;;;;;5091488;28;20126;-63
2022/08/19 06:30:22;;;;;;;32.10;26.05;;;;;;;;;;5073716;28;20077;-64
2022/08/19 06:32:48;;;;;;;31.10;25.10;;;;;;;;;;5092262;28;20089;-65
2022/08/19 06:35:14;;;;;;;31.00;25.90;;;;;;;;;;5092304;28;20468;-64
2022/08/19 06:37:40;;;;;;;32.25;26.45;;;;;;;;;;5091449;28;20361;-62
2022/08/19 06:40:08;;;;;;;31.20;25.95;;;;;;;;;;5092050;28;20047;-65
2022/08/19 06:42:34;;;;;;;29.87;25.83;;;;;;;;;;5092236;28;20096;-65
2022/08/19 06:45:04;;;;;;;30.30;27.10;;;;;;;;;;5091653;28;20468;-64
2022/08/19 06:47:32;;;;;;;30.75;25.05;;;;;;;;;;5072797;28;20506;-66
2022/08/19 06:50:02;;;;;;;36.05;27.10;;;;;;;;;;5073605;28;20063;-65
2022/08/19 06:52:29;;;;;;;30.55;26.00;;;;;;;;;;5073469;28;20024;-65
2022/08/19 06:54:56;;;;;;;31.05;25.27;;;;;;;;;;5091516;28;20110;-66
2022/08/19 06:57:22;;;;;;;30.95;26.52;;;;;;;;;;5072912;28;20073;-64
2022/08/19 06:59:48;;;;;;;32.92;27.30;;;;;;;;;;5073253;28;20052;-64
2022/08/19 07:02:14;;;;;;;31.77;26.02;;;;;;;;;;5091594;28;20016;-65
2022/08/19 07:04:40;;;;;;;32.05;26.50;;;;;;;;;;5091326;28;20134;-63
2022/08/19 07:07:09;;;;;;;30.65;27.48;;;;;;;;;;5091325;28;20020;-64
2022/08/19 07:09:37;;;;;;;32.13;27.25;;;;;;;;;;5091356;28;20095;-65
2022/08/19 07:12:03;;;;;;;31.67;28.27;;;;;;;;;;5091655;28;20024;-65
2022/08/19 07:14:29;;;;;;;35.83;27.15;;;;;;;;;;5091374;28;20115;-64
2022/08/19 07:16:56;;;;;;;31.70;28.23;;;;;;;;;;5091159;28;20099;-64
2022/08/19 07:19:24;;;;;;;30.90;27.23;;;;;;;;;;5090530;28;20024;-66
2022/08/19 07:21:54;;;;;;;31.33;27.63;;;;;;;;;;5091108;28;20457;-63
2022/08/19 07:24:23;;;;;;;38.00;27.92;;;;;;;;;;5089772;28;20497;-66
2022/08/19 07:26:50;;;;;;;30.90;25.98;;;;;;;;;;5089195;28;20078;-64
2022/08/19 07:29:16;;;;;;;31.02;27.80;;;;;;;;;;5088887;28;20077;-66
2022/08/19 07:31:42;;;;;;;32.15;26.98;;;;;;;;;;5089485;28;20032;-66
2022/08/19 07:34:11;;;;;;;33.58;27.90;;;;;;;;;;5089205;28;20034;-66
2022/08/19 07:36:38;;;;;;;32.10;25.40;;;;;;;;;;5071298;28;20031;-66
2022/08/19 07:39:07;;;;;;;30.08;26.70;;;;;;;;;;5089697;28;20416;-66
2022/08/19 07:41:36;;;;;;;29.98;25.55;;;;;;;;;;5091306;28;20051;-66
2022/08/19 07:44:03;;;;;;;30.17;25.58;;;;;;;;;;5072817;28;20115;-66
2022/08/19 07:46:32;;;;;;;31.25;27.00;;;;;;;;;;5090941;28;20099;-65
2022/08/19 07:49:00;;;;;;;31.30;26.15;;;;;;;;;;5090092;28;20123;-67
2022/08/19 07:51:26;;;;;;;31.42;24.92;;;;;;;;;;5072783;28;20032;-66
2022/08/19 07:53:52;;;;;;;30.10;26.05;;;;;;;;;;5088899;28;20028;-66
2022/08/19 07:56:19;;;;;;;29.77;26.33;;;;;;;;;;5073186;28;20020;-65
2022/08/19 07:58:47;;;;;;;28.63;25.55;;;;;;;;;;5072267;28;20420;-65
2022/08/19 08:01:15;;;;;;;29.60;24.58;;;;;;;;;;5091138;28;20020;-66
2022/08/19 08:09:11;;;;;;;;;;;;;;;;;;;;;
2022/08/19 08:11:41;;;;;;;26.17;22.48;;;;;;;;;;5091162;28;20036;-65
2022/08/19 08:14:08;;;;;;;27.48;24.25;;;;;;;;;;5072584;28;20028;-66
2022/08/19 08:16:37;;;;;;;29.23;23.55;;;;;;;;;;5091057;28;20012;-67
2022/08/19 08:19:07;;;;;;;33.80;22.90;;;;;;;;;;5090077;28;20366;-66
2022/08/19 08:21:33;;;;;;;26.63;23.45;;;;;;;;;;5072850;28;20518;-66
2022/08/19 08:23:59;;;;;;;28.30;24.17;;;;;;;;;;5090572;28;20624;-65
2022/08/19 08:26:26;;;;;;;25.45;22.58;;;;;;;;;;5072723;28;20036;-66
2022/08/19 08:28:52;;;;;;;25.15;22.52;;;;;;;;;;5071685;28;20119;-65
2022/08/19 08:31:19;;;;;;;26.83;22.13;;;;;;;;;;5090804;28;20028;-66
2022/08/19 08:33:45;;;;;;;24.60;21.67;;;;;;;;;;5093440;28;20031;-65
2022/08/19 08:36:16;;;;;;;24.88;20.55;;;;;;;;;;5076211;28;20068;-67
2022/08/19 08:38:45;;;;;;;26.00;20.65;;;;;;;;;;5075338;28;20024;-65
2022/08/19 08:41:18;;;;;;;25.08;21.25;;;;;;;;;;5094176;28;20020;-66
2022/08/19 08:43:45;;;;;;;25.13;21.70;;;;;;;;;;5094176;28;20027;-64
2022/08/19 08:46:32;;;;;;;27.10;23.23;;;;;;;;;;5094074;28;20111;-63
2022/08/19 08:49:07;;;;;;;24.88;21.98;;;;;;;;;;5093329;28;20081;-65
2022/08/19 08:51:36;;;;;;;27.25;22.55;;;;;;;;;;5076074;28;20517;-69
2022/08/19 08:54:03;;;;;;;23.40;20.88;;;;;;;;;;5093740;28;20039;-66
2022/08/19 08:56:30;;;;;;;24.88;22.02;;;;;;;;;;5094133;28;20447;-65
2022/08/19 08:59:01;;;;;;;25.98;22.27;;;;;;;;;;5093237;28;20024;-63
2022/08/19 09:01:27;;;;;;;23.35;20.00;;;;;;;;;;5094020;28;20072;-62
2022/08/19 09:03:53;;;;;;;24.65;21.98;;;;;;;;;;5092100;28;20396;-64
2022/08/19 09:06:32;;;;;;;24.45;21.55;;;;;;;;;;5075633;28;20557;-60
2022/08/19 09:09:24;;;;;;;26.33;22.20;;;;;;;;;;5092722;28;20028;-61
2022/08/19 09:11:50;;;;;;;26.40;22.63;;;;;;;;;;5070829;28;20032;-61
2022/08/19 09:14:19;;;;;;;26.92;22.30;;;;;;;;;;5093305;28;20384;-62
2022/08/19 09:16:45;;;;;;;22.98;20.58;;;;;;;;;;5093321;28;20025;-62
2022/08/19 09:19:11;;;;;;;23.42;20.80;;;;;;;;;;5092800;28;20523;-61
2022/08/19 09:21:38;;;;;;;21.55;19.20;;;;;;;;;;5093345;28;20400;-63
2022/08/19 09:24:05;;;;;;;20.23;17.35;;;;;;;;;;5093214;28;20387;-58
2022/08/19 09:26:32;;;;;;;20.98;17.90;;;;;;;;;;5093223;28;20038;-63
2022/08/19 09:28:59;;;;;;;22.20;18.80;;;;;;;;;;5074334;28;20460;-63
2022/08/19 09:31:26;;;;;;;20.88;18.67;;;;;;;;;;5075122;28;20028;-61
2022/08/19 09:33:56;;;;;;;21.60;18.30;;;;;;;;;;5092933;28;20028;-59
2022/08/19 09:36:23;;;;;;;20.38;16.90;;;;;;;;;;5093181;28;20028;-59
2022/08/19 09:38:49;;;;;;;20.13;16.60;;;;;;;;;;5074087;28;20758;-55
2022/08/19 09:41:18;;;;;;;19.45;15.63;;;;;;;;;;5092958;28;20035;-59
2022/08/19 09:43:45;;;;;;;19.58;16.30;;;;;;;;;;5092541;28;20069;-59
2022/08/19 09:46:11;;;;;;;20.42;16.25;;;;;;;;;;5074839;28;20028;-57
2022/08/19 09:48:38;;;;;;;18.85;16.10;;;;;;;;;;5091016;28;20123;-60
2022/08/19 09:51:17;;;;;;;21.75;16.15;;;;;;;;;;5093061;28;20028;-61
2022/08/19 09:53:44;;;;;;;21.15;17.05;;;;;;;;;;5074129;28;20039;-56
2022/08/19 09:56:11;;;;;;;18.33;15.82;;;;;;;;;;5074587;28;20072;-60
2022/08/19 09:58:38;;;;;;;17.80;15.60;;;;;;;;;;5091183;28;20030;-59
2022/08/19 10:01:04;;;;;;;18.67;15.60;;;;;;;;;;5092490;28;20016;-59
2022/08/19 10:03:31;;;;;;;19.23;16.30;;;;;;;;;;5092769;28;20028;-58
2022/08/19 10:05:58;;;;;;;19.17;17.15;;;;;;;;;;5092591;28;20060;-59
2022/08/19 10:08:33;;;;;;;18.48;16.17;;;;;;;;;;5091756;28;20046;-55
2022/08/19 10:10:59;;;;;;;19.00;17.00;;;;;;;;;;5074352;28;20035;-59
2022/08/19 10:13:26;;;;;;;20.77;17.65;;;;;;;;;;5092422;28;20024;-58
2022/08/19 10:15:54;;;;;;;18.75;16.75;;;;;;;;;;5092374;28;20020;-60
2022/08/19 10:18:21;;;;;;;22.30;17.58;;;;;;;;;;5091668;28;20071;-60
2022/08/19 10:20:47;;;;;;;19.80;17.17;;;;;;;;;;5092403;28;20028;-60
2022/08/19 10:23:14;;;;;;;19.45;17.38;;;;;;;;;;5091801;28;20502;-61
2022/08/19 10:25:41;;;;;;;19.42;17.35;;;;;;;;;;5091905;28;20111;-63
2022/08/19 10:28:07;;;;;;;20.33;16.77;;;;;;;;;;5091287;28;20130;-64
2022/08/19 10:30:33;;;;;;;20.50;16.52;;;;;;;;;;5092376;28;20081;-65
2022/08/19 10:32:59;;;;;;;19.23;15.85;;;;;;;;;;5091992;28;20513;-64
2022/08/19 10:35:29;;;;;;;18.95;16.17;;;;;;;;;;5074050;28;20020;-64
2022/08/19 10:37:58;;;;;;;19.08;16.90;;;;;;;;;;5091864;28;20016;-63
2022/08/19 10:40:25;;;;;;;19.00;17.00;;;;;;;;;;5092206;28;20024;-62
2022/08/19 10:42:51;;;;;;;18.75;16.75;;;;;;;;;;5091712;28;20047;-63
2022/08/19 10:45:17;;;;;;;17.92;15.80;;;;;;;;;;5091833;28;20020;-63
2022/08/19 10:47:43;;;;;;;18.95;16.42;;;;;;;;;;5096236;28;20024;-62
2022/08/19 10:52:54;;;;;;;18.95;15.70;;;;;;;;;;5091972;28;20161;-63
2022/08/19 10:58:11;;;;;;;18.52;15.90;;;;;;;;;;5091484;28;20037;-63
2022/08/19 11:00:37;;;;;;;18.35;15.63;;;;;;;;;;5091852;28;20510;-63
2022/08/19 11:03:03;;;;;;;17.40;15.50;;;;;;;;;;5089725;28;20032;-62
2022/08/19 11:05:30;;;;;;;17.52;15.65;;;;;;;;;;5091550;28;20026;-63
2022/08/19 11:07:56;;;;;;;18.75;16.00;;;;;;;;;;5090974;28;20035;-58
2022/08/19 11:10:23;;;;;;;19.30;15.95;;;;;;;;;;5091214;28;20028;-64
2022/08/19 11:12:54;;;;;;;18.48;16.00;;;;;;;;;;5091323;28;20028;-64
2022/08/19 11:15:21;;;;;;;18.02;15.80;;;;;;;;;;5091583;28;20553;-62
2022/08/19 11:17:47;;;;;;;20.88;17.25;;;;;;;;;;5090312;28;20024;-63
2022/08/19 11:20:14;;;;;;;18.67;16.67;;;;;;;;;;5073089;28;20020;-62
2022/08/19 11:22:40;;;;;;;20.33;16.75;;;;;;;;;;5091162;28;20027;-62
2022/08/19 11:25:07;;;;;;;19.45;16.92;;;;;;;;;;5091137;28;20043;-59
2022/08/19 11:27:33;;;;;;;19.45;17.23;;;;;;;;;;5090290;28;20023;-63
2022/08/19 11:30:00;;;;;;;18.80;16.75;;;;;;;;;;5091050;28;20438;-63
2022/08/19 11:32:27;;;;;;;19.13;17.23;;;;;;;;;;5091399;28;20093;-62
2022/08/19 11:34:54;;;;;;;19.10;17.10;;;;;;;;;;5091108;28;20020;-61
2022/08/19 11:37:20;;;;;;;19.40;16.88;;;;;;;;;;5090822;28;20050;-63
2022/08/19 11:39:46;;;;;;;19.98;16.90;;;;;;;;;;5091268;28;20031;-63
2022/08/19 11:44:57;;;;;;;19.23;17.10;;;;;;;;;;5090821;28;20146;-63
2022/08/19 11:47:23;;;;;;;20.40;17.23;;;;;;;;;;5090503;28;20362;-64
2022/08/19 11:49:49;;;;;;;19.55;17.05;;;;;;;;;;5091196;28;20047;-63
2022/08/19 11:52:15;;;;;;;19.95;17.15;;;;;;;;;;5091236;28;20469;-63
2022/08/19 11:54:41;;;;;;;19.67;17.63;;;;;;;;;;5091402;28;20032;-63
2022/08/19 11:57:07;;;;;;;22.83;17.85;;;;;;;;;;5090774;28;20028;-64
2022/08/19 11:59:33;;;;;;;18.85;14.90;;;;;;;;;;5090692;28;20024;-53
2022/08/19 12:01:59;;;;;;;17.95;15.57;;;;;;;;;;5091247;28;20039;-50
2022/08/19 12:04:26;;;;;;;17.30;14.18;;;;;;;;;;5090837;28;20020;-50
2022/08/19 12:06:52;;;;;;;17.27;14.70;;;;;;;;;;5074470;28;20026;-51
2022/08/19 12:09:18;;;;;;;19.40;17.00;;;;;;;;;;5094156;28;20039;-55
2022/08/19 12:11:45;;;;;;;20.08;16.88;;;;;;;;;;5095186;28;20016;-52
2022/08/19 12:14:13;;;;;;;20.58;16.58;;;;;;;;;;5093987;28;20047;-53
2022/08/19 12:16:40;;;;;;;;;;;;;;;;;;5095173;28;20107;-55
2022/08/19 12:19:07;;;;;;;20.63;17.38;;;;;;;;;;5093489;28;20340;-51
2022/08/19 12:21:34;;;;;;;21.95;18.38;;;;;;;;;;5094601;28;20027;-47
2022/08/19 12:24:01;;;;;;;21.73;17.67;;;;;;;;;;5094333;28;20020;-51
2022/08/19 12:26:29;;;;;;;21.98;18.67;;;;;;;;;;5094600;28;20089;-54
2022/08/19 12:28:55;;;;;;;19.55;16.73;;;;;;;;;;5095245;28;20031;-53
2022/08/19 12:31:21;;;;;;;20.85;17.13;;;;;;;;;;5094039;28;20035;-52
2022/08/19 12:33:48;;;;;;;20.95;18.27;;;;;;;;;;4733177;28;10000077;-54
2022/08/19 12:36:15;;;;;;;20.50;17.60;;;;;;;;;;5081819;28;20127;-50
2022/08/19 12:38:41;;;;;;;18.60;15.88;;;;;;;;;;5077645;28;20081;-50
2022/08/19 12:41:10;;;;;;;21.30;17.50;;;;;;;;;;5077191;28;20390;-52
2022/08/19 12:43:37;;;;;;;19.13;16.83;;;;;;;;;;5079132;28;20016;-53
2022/08/19 12:46:04;;;;;;;18.48;16.38;;;;;;;;;;5080239;28;20027;-53
2022/08/19 12:48:30;;;;;;;19.27;15.85;;;;;;;;;;5078503;28;20016;-55
2022/08/19 12:50:56;;;;;;;17.80;15.68;;;;;;;;;;5078071;28;20049;-51
2022/08/19 12:53:22;;;;;;;20.33;15.90;;;;;;;;;;5062910;28;20163;-51
2022/08/19 12:55:48;;;;;;;20.05;16.20;;;;;;;;;;5076009;28;20028;-50
2022/08/19 12:58:14;;;;;;;20.58;16.63;;;;;;;;;;5072128;28;20036;-56
2022/08/19 13:00:40;;;;;;;19.30;15.43;;;;;;;;;;5080499;28;20031;-52
2022/08/19 13:03:06;;;;;;;18.88;15.38;;;;;;;;;;5069651;28;20035;-51
2022/08/19 13:05:34;;;;;;;18.95;15.98;;;;;;;;;;5070632;28;20024;-49
2022/08/19 13:08:00;;;;;;;18.65;15.93;;;;;;;;;;5072542;28;20029;-53
2022/08/19 13:10:29;;;;;;;19.40;16.20;;;;;;;;;;5093400;28;20028;-52
2022/08/19 13:12:55;;;;;;;19.80;15.60;;;;;;;;;;5079238;28;20032;-50
2022/08/19 13:15:22;;;;;;;17.02;14.98;;;;;;;;;;5073035;28;20094;-52
2022/08/19 13:17:49;;;;;;;18.10;14.88;;;;;;;;;;5071635;28;20421;-51
2022/08/19 13:20:16;;;;;;;17.63;14.43;;;;;;;;;;5072273;28;20033;-54
2022/08/19 13:22:44;;;;;;;17.33;14.93;;;;;;;;;;5073096;28;20094;-52
2022/08/19 13:25:10;;;;;;;17.35;14.52;;;;;;;;;;5072919;28;20024;-62
2022/08/19 13:27:36;;;;;;;17.60;14.85;;;;;;;;;;5072466;28;20032;-63
2022/08/19 13:35:33;;;;;;;20.50;18.40;;;;;;;;;;5073299;28;20035;-61
2022/08/19 13:38:00;;;;;;;22.35;18.65;;;;;;;;;;5072472;28;20173;-64
2022/08/19 13:40:27;;;;;;;20.92;18.73;;;;;;;;;;5072954;28;20024;-64
2022/08/19 13:42:54;;;;;;;20.83;18.63;;;;;;;;;;5083410;28;20030;-64
2022/08/19 13:45:21;;;;;;;20.15;17.50;;;;;;;;;;5092914;28;20074;-62
2022/08/19 13:47:48;;;;;;;20.55;18.45;;;;;;;;;;5092036;28;20024;-64
2022/08/19 13:50:16;;;;;;;20.58;18.58;;;;;;;;;;5092648;28;20028;-64
2022/08/19 13:52:42;;;;;;;;;;;;;;;;;;5074503;28;20050;-61
2022/08/19 13:55:09;;;;;;;19.90;17.90;;;;;;;;;;5092813;28;19912;-64
2022/08/19 13:57:35;;;;;;;19.88;17.52;;;;;;;;;;5092016;28;20069;-63
2022/08/19 14:00:02;;;;;;;19.48;17.45;;;;;;;;;;5092678;28;20030;-59
2022/08/19 14:02:28;;;;;;;20.05;17.95;;;;;;;;;;5092664;28;20032;-63
2022/08/19 14:04:54;;;;;;;20.35;18.25;;;;;;;;;;4736650;28;10000503;-62
2022/08/19 14:07:23;;;;;;;20.40;18.30;;;;;;;;;;5077794;28;20029;-60
2022/08/19 14:09:50;;;;;;;20.58;17.77;;;;;;;;;;5080550;28;20016;-63
2022/08/19 14:12:20;;;;;;;19.00;17.02;;;;;;;;;;5084057;28;20021;-63
2022/08/19 14:14:46;;;;;;;20.42;17.95;;;;;;;;;;5071529;28;20082;-62
2022/08/19 14:17:12;;;;;;;19.20;17.20;;;;;;;;;;5071671;28;20058;-62
2022/08/19 14:19:38;;;;;;;20.35;17.17;;;;;;;;;;5054070;28;20412;-63
2022/08/19 14:22:05;;;;;;;18.70;15.60;;;;;;;;;;5072669;28;20044;-63
2022/08/19 14:24:31;;;;;;;19.30;17.13;;;;;;;;;;5072737;28;20427;-64
2022/08/19 14:27:00;;;;;;;20.23;17.60;;;;;;;;;;5071594;28;20506;-63
2022/08/19 14:29:28;;;;;;;19.52;17.27;;;;;;;;;;4718523;28;9999791;-63
2022/08/19 14:31:56;;;;;;;19.35;16.90;;;;;;;;;;5065678;28;20123;-64
2022/08/19 14:34:22;;;;;;;18.60;16.60;;;;;;;;;;5070525;28;20051;-63
2022/08/19 14:36:48;;;;;;;19.52;16.95;;;;;;;;;;5068530;28;20036;-63
2022/08/19 14:39:14;;;;;;;19.10;16.63;;;;;;;;;;5067395;28;20020;-61
2022/08/19 14:41:41;;;;;;;19.35;17.35;;;;;;;;;;5068665;28;20120;-63
2022/08/19 14:44:09;;;;;;;19.53;17.43;;;;;;;;;;5088665;28;20032;-63